Time;durP1;ratioP1;P1;durP2;ratioP2;P2;SDS_P1;SDS_P2;PMS_P1;PMS_P2;Temp;Humidity;BMP_temperature;BMP_pressure;BME280_temperature;BME280_humidity;BME280_pressure;Samples;Min_cycle;Max_cycle;Signal;HPM_P1;HPM_P2
2021/08/26 00:00:31;;;;;;;4.40;1.60;;;;;;;;;;4359738;33;20154;-80
2021/08/26 00:18:30;;;;;;;4.43;1.50;;;;;;;;;;4344120;33;20487;-79
2021/08/26 00:21:19;;;;;;;8.15;1.70;;;;;;;;;;4344011;33;20595;-80
2021/08/26 00:27:20;;;;;;;;;;;;;;;;;;;;;
2021/08/26 00:33:17;;;;;;;;;;;;;;;;;;;;;
2021/08/26 00:38:35;;;;;;;4.18;1.65;;;;;;;;;;4332161;33;20182;-80
2021/08/26 00:41:03;;;;;;;8.73;2.12;;;;;;;;;;4357970;33;20194;-80
2021/08/26 00:47:11;;;;;;;5.50;2.25;;;;;;;;;;4357582;33;20170;-80
2021/08/26 00:49:47;;;;;;;6.07;2.05;;;;;;;;;;4357924;32;20201;-79
2021/08/26 00:52:46;;;;;;;;;;;;;;;;;;;;;
2021/08/26 00:55:21;;;;;;;5.45;2.30;;;;;;;;;;4360688;32;20178;-79
2021/08/26 00:57:49;;;;;;;6.37;2.30;;;;;;;;;;4346971;33;20216;-79
2021/08/26 01:00:18;;;;;;;9.68;2.28;;;;;;;;;;4359459;32;20175;-79
2021/08/26 01:06:11;;;;;;;8.20;2.42;;;;;;;;;;4329545;33;20246;-79
2021/08/26 01:08:53;;;;;;;7.75;2.58;;;;;;;;;;4344465;33;20281;-80
2021/08/26 01:11:23;;;;;;;12.70;2.70;;;;;;;;;;4358966;33;20190;-79
2021/08/26 01:13:51;;;;;;;9.30;2.58;;;;;;;;;;4359244;32;20194;-79
2021/08/26 01:16:52;;;;;;;9.40;2.60;;;;;;;;;;4358634;33;20155;-79
2021/08/26 01:25:40;;;;;;;6.45;2.50;;;;;;;;;;4328534;33;20651;-79
2021/08/26 01:28:06;;;;;;;9.52;3.33;;;;;;;;;;4344557;33;20213;-79
2021/08/26 01:36:45;;;;;;;9.55;2.83;;;;;;;;;;4360434;33;20145;-80
2021/08/26 01:39:30;;;;;;;12.32;3.15;;;;;;;;;;4359057;32;20251;-79
2021/08/26 01:42:11;;;;;;;11.15;2.90;;;;;;;;;;4359422;33;20205;-80
2021/08/26 01:44:56;;;;;;;8.20;3.47;;;;;;;;;;4359861;33;20132;-80
2021/08/26 01:47:34;;;;;;;12.57;3.37;;;;;;;;;;4359972;33;20149;-80
2021/08/26 01:50:31;;;;;;;11.85;3.47;;;;;;;;;;4359045;33;20162;-79
2021/08/26 01:53:23;;;;;;;11.02;3.50;;;;;;;;;;4355997;33;20167;-80
2021/08/26 02:04:06;;;;;;;12.32;3.33;;;;;;;;;;4344590;33;20182;-80
2021/08/26 02:06:42;;;;;;;;;;;;;;;;;;;;;
2021/08/26 02:09:10;;;;;;;13.73;3.87;;;;;;;;;;4351446;33;20505;-79
2021/08/26 02:11:53;;;;;;;13.45;3.60;;;;;;;;;;4358435;33;20234;-80
2021/08/26 02:14:31;;;;;;;12.50;3.22;;;;;;;;;;4359372;32;20155;-80
2021/08/26 02:20:28;;;;;;;11.75;3.37;;;;;;;;;;4362527;32;20488;-80
2021/08/26 02:23:32;;;;;;;14.18;3.42;;;;;;;;;;4361472;33;20174;-80
2021/08/26 02:26:02;;;;;;;14.57;3.85;;;;;;;;;;4362254;33;20182;-79
2021/08/26 02:28:30;;;;;;;17.58;3.90;;;;;;;;;;4361644;33;20159;-80
2021/08/26 02:30:56;;;;;;;17.58;3.80;;;;;;;;;;4348947;33;20521;-80
2021/08/26 02:33:34;;;;;;;;;;;;;;;;;;;;;
2021/08/26 02:36:34;;;;;;;14.73;3.80;;;;;;;;;;4359958;33;20158;-79
2021/08/26 02:39:09;;;;;;;;;;;;;;;;;;;;;
2021/08/26 02:41:53;;;;;;;16.80;3.87;;;;;;;;;;4362569;32;20162;-79
2021/08/26 02:44:21;;;;;;;16.25;3.70;;;;;;;;;;4349010;33;20163;-80
2021/08/26 02:46:53;;;;;;;16.45;4.10;;;;;;;;;;4362376;33;20144;-80
2021/08/26 02:49:20;;;;;;;19.15;4.18;;;;;;;;;;4361191;32;20612;-80
2021/08/26 02:52:02;;;;;;;15.18;3.40;;;;;;;;;;4360690;32;20171;-79
2021/08/26 02:54:28;;;;;;;14.95;3.60;;;;;;;;;;4361156;32;20535;-80
2021/08/26 02:59:46;;;;;;;13.55;3.60;;;;;;;;;;4346858;33;20218;-79
2021/08/26 03:02:48;;;;;;;11.40;3.55;;;;;;;;;;4358201;32;20684;-79
2021/08/26 03:05:21;;;;;;;11.40;3.30;;;;;;;;;;4338306;33;20221;-80
2021/08/26 03:08:10;;;;;;;16.30;3.97;;;;;;;;;;4358479;32;20159;-80
2021/08/26 03:10:46;;;;;;;13.52;3.00;;;;;;;;;;4348856;33;20229;-79
2021/08/26 03:13:37;;;;;;;;;;;;;;;;;;;;;
2021/08/26 03:16:03;;;;;;;13.65;3.15;;;;;;;;;;4362335;32;20171;-79
2021/08/26 03:18:40;;;;;;;13.68;3.05;;;;;;;;;;4360456;32;20151;-79
2021/08/26 03:21:21;;;;;;;15.90;3.50;;;;;;;;;;4360550;32;20181;-80
2021/08/26 03:23:49;;;;;;;10.35;3.05;;;;;;;;;;4360376;32;20162;-80
2021/08/26 03:26:14;;;;;;;15.60;3.08;;;;;;;;;;4360531;32;20298;-80
2021/08/26 03:28:42;;;;;;;12.57;3.50;;;;;;;;;;4360292;32;20156;-80
2021/08/26 03:31:29;;;;;;;13.15;2.85;;;;;;;;;;4360251;32;20148;-80
2021/08/26 03:34:06;;;;;;;9.45;2.87;;;;;;;;;;4360966;32;20613;-80
2021/08/26 03:36:34;;;;;;;11.82;2.90;;;;;;;;;;4360189;32;20162;-80
2021/08/26 03:39:03;;;;;;;11.77;3.10;;;;;;;;;;4360177;32;20619;-80
2021/08/26 03:41:31;;;;;;;10.77;2.85;;;;;;;;;;4359812;32;20580;-80
2021/08/26 03:43:56;;;;;;;11.85;2.87;;;;;;;;;;4347152;33;20230;-80
2021/08/26 03:46:30;;;;;;;8.48;2.75;;;;;;;;;;4360268;32;20197;-80
2021/08/26 03:48:56;;;;;;;11.55;3.15;;;;;;;;;;4360027;33;20580;-80
2021/08/26 03:51:30;;;;;;;11.68;3.55;;;;;;;;;;4347875;33;20226;-81
2021/08/26 03:53:56;;;;;;;11.63;3.00;;;;;;;;;;4360106;32;20150;-80
2021/08/26 03:56:24;;;;;;;11.57;3.12;;;;;;;;;;4359933;32;20584;-79
2021/08/26 03:58:50;;;;;;;8.95;3.12;;;;;;;;;;4351948;32;20155;-80
2021/08/26 04:01:27;;;;;;;9.90;2.65;;;;;;;;;;4344919;33;20190;-80
2021/08/26 04:03:57;;;;;;;12.95;3.42;;;;;;;;;;4360136;33;20192;-81
2021/08/26 04:06:23;;;;;;;11.38;3.10;;;;;;;;;;4359729;33;20159;-79
2021/08/26 04:08:51;;;;;;;12.93;3.40;;;;;;;;;;4359634;32;20189;-80
2021/08/26 04:11:19;;;;;;;14.65;3.40;;;;;;;;;;4360004;32;20177;-79
2021/08/26 04:13:44;;;;;;;9.05;2.97;;;;;;;;;;4359642;33;20652;-79
2021/08/26 04:16:12;;;;;;;11.75;3.00;;;;;;;;;;4360315;33;20163;-80
2021/08/26 04:18:37;;;;;;;11.80;3.45;;;;;;;;;;4360166;33;20472;-80
2021/08/26 04:21:03;;;;;;;9.90;3.17;;;;;;;;;;4360079;33;20163;-80
2021/08/26 04:23:31;;;;;;;13.07;3.25;;;;;;;;;;4352349;33;20274;-79
2021/08/26 04:25:56;;;;;;;15.30;3.60;;;;;;;;;;4359572;32;20151;-80
2021/08/26 04:28:23;;;;;;;13.75;3.55;;;;;;;;;;4359435;33;20170;-79
2021/08/26 04:30:52;;;;;;;14.05;3.42;;;;;;;;;;4347111;33;20152;-79
2021/08/26 04:33:17;;;;;;;14.55;3.22;;;;;;;;;;4359717;32;20155;-80
2021/08/26 04:35:52;;;;;;;17.40;3.53;;;;;;;;;;4359309;32;20186;-79
2021/08/26 04:38:25;;;;;;;10.88;3.20;;;;;;;;;;4359658;32;20154;-79
2021/08/26 04:40:52;;;;;;;13.43;3.08;;;;;;;;;;4359282;32;20221;-80
2021/08/26 04:43:19;;;;;;;16.25;3.85;;;;;;;;;;4359530;32;20182;-80
2021/08/26 04:45:44;;;;;;;12.32;3.05;;;;;;;;;;4359208;32;20580;-80
2021/08/26 04:48:28;;;;;;;9.45;3.10;;;;;;;;;;4359132;33;20147;-79
2021/08/26 04:50:54;;;;;;;9.65;2.80;;;;;;;;;;4359339;32;20225;-79
2021/08/26 04:53:19;;;;;;;13.30;2.90;;;;;;;;;;4359390;32;20152;-80
2021/08/26 04:55:47;;;;;;;17.33;3.65;;;;;;;;;;4359005;32;20580;-79
2021/08/26 04:58:12;;;;;;;14.82;3.35;;;;;;;;;;4359269;32;20189;-80
2021/08/26 05:00:37;;;;;;;12.75;3.05;;;;;;;;;;4359835;32;20147;-79
2021/08/26 05:03:03;;;;;;;15.85;3.67;;;;;;;;;;4359150;33;20194;-81
2021/08/26 05:05:37;;;;;;;12.80;3.00;;;;;;;;;;4359471;32;20155;-80
2021/08/26 05:08:02;;;;;;;9.60;2.60;;;;;;;;;;4359493;32;20241;-80
2021/08/26 05:10:28;;;;;;;9.10;2.65;;;;;;;;;;4359380;32;20182;-79
2021/08/26 05:13:03;;;;;;;13.88;3.00;;;;;;;;;;4358857;32;20187;-80
2021/08/26 05:15:28;;;;;;;11.80;3.00;;;;;;;;;;4359074;33;20143;-79
2021/08/26 05:18:15;;;;;;;10.93;2.40;;;;;;;;;;4359069;32;20232;-78
2021/08/26 05:20:45;;;;;;;10.40;2.45;;;;;;;;;;4360091;33;20228;-79
2021/08/26 05:23:29;;;;;;;;;;;;;;;;;;;;;
2021/08/26 05:26:00;;;;;;;11.68;2.75;;;;;;;;;;4360358;33;20189;-80
2021/08/26 05:28:38;;;;;;;9.75;2.33;;;;;;;;;;4359431;32;20159;-79
2021/08/26 05:31:04;;;;;;;10.45;2.05;;;;;;;;;;4356258;33;20253;-80
2021/08/26 05:33:29;;;;;;;9.05;2.08;;;;;;;;;;4353362;33;20159;-79
2021/08/26 05:35:54;;;;;;;15.18;2.20;;;;;;;;;;4358775;33;20186;-80
2021/08/26 05:38:25;;;;;;;8.45;1.85;;;;;;;;;;4346544;33;20182;-79
2021/08/26 05:41:11;;;;;;;11.05;2.30;;;;;;;;;;4346959;33;20147;-79
2021/08/26 05:43:39;;;;;;;9.75;1.95;;;;;;;;;;4358938;33;20155;-80
2021/08/26 05:46:41;;;;;;;12.35;2.10;;;;;;;;;;4358606;33;20198;-79
2021/08/26 05:49:08;;;;;;;6.60;1.95;;;;;;;;;;4360310;32;20193;-79
2021/08/26 05:51:55;;;;;;;;;;;;;;;;;;;;;
2021/08/26 05:54:21;;;;;;;8.48;2.30;;;;;;;;;;4363294;32;20143;-81
2021/08/26 05:56:58;;;;;;;10.20;2.00;;;;;;;;;;4360952;32;20185;-79
2021/08/26 05:59:32;;;;;;;10.05;2.05;;;;;;;;;;4363068;33;20218;-79
2021/08/26 06:02:11;;;;;;;;;;;;;;;;;;;;;
2021/08/26 06:04:37;;;;;;;10.13;2.20;;;;;;;;;;4360373;32;20147;-75
2021/08/26 06:07:02;;;;;;;7.68;1.80;;;;;;;;;;4360862;32;20241;-80
2021/08/26 06:09:28;;;;;;;9.38;2.28;;;;;;;;;;4361119;33;20156;-79
2021/08/26 06:11:53;;;;;;;8.77;2.00;;;;;;;;;;4349073;33;20194;-79
2021/08/26 06:14:23;;;;;;;11.23;1.90;;;;;;;;;;4362056;32;20163;-79
2021/08/26 06:16:57;;;;;;;10.52;2.10;;;;;;;;;;4361474;33;20469;-80
2021/08/26 06:19:22;;;;;;;8.40;1.90;;;;;;;;;;4361976;32;20173;-79
2021/08/26 06:22:14;;;;;;;8.32;1.80;;;;;;;;;;4361085;32;20492;-79
2021/08/26 06:24:51;;;;;;;8.35;2.45;;;;;;;;;;4356973;32;20159;-79
2021/08/26 06:27:26;;;;;;;8.43;2.03;;;;;;;;;;4360516;33;20177;-79
2021/08/26 06:29:57;;;;;;;8.77;2.10;;;;;;;;;;4348885;33;20201;-80
2021/08/26 06:32:22;;;;;;;8.65;2.00;;;;;;;;;;4361574;32;20655;-78
2021/08/26 06:34:48;;;;;;;9.88;2.20;;;;;;;;;;4361194;32;20167;-79
2021/08/26 06:37:16;;;;;;;8.75;1.95;;;;;;;;;;4360919;33;20182;-79
2021/08/26 06:40:00;;;;;;;;;;;;;;;;;;;;;
2021/08/26 06:42:27;;;;;;;6.57;1.73;;;;;;;;;;4362210;33;20225;-79
2021/08/26 06:45:11;;;;;;;;;;;;;;;;;;;;;
2021/08/26 06:47:37;;;;;;;6.47;1.83;;;;;;;;;;4362494;33;20150;-80
2021/08/26 06:50:58;;;;;;;13.05;2.12;;;;;;;;;;4360834;32;20171;-80
2021/08/26 06:53:05;;;;;;;6.75;1.70;;;;;;;;;;4354734;33;20194;-79
2021/08/26 06:55:30;;;;;;;6.68;1.60;;;;;;;;;;4360461;33;20174;-80
2021/08/26 06:58:19;;;;;;;6.43;1.50;;;;;;;;;;4362233;32;20150;-79
2021/08/26 07:00:44;;;;;;;2.87;1.40;;;;;;;;;;4356354;32;20222;-79
2021/08/26 07:03:56;;;;;;;;;;;;;;;;;;;;;
2021/08/26 07:07:11;;;;;;;;;;;;;;;;;;;;;
2021/08/26 07:09:48;;;;;;;6.93;1.50;;;;;;;;;;4335665;33;20576;-80
2021/08/26 07:15:32;;;;;;;5.62;1.80;;;;;;;;;;4329822;33;20172;-77
2021/08/26 07:18:06;;;;;;;6.35;1.75;;;;;;;;;;4329899;33;20148;-79
2021/08/26 07:20:38;;;;;;;7.53;1.90;;;;;;;;;;4317963;33;20158;-79
2021/08/26 07:23:26;;;;;;;8.43;1.67;;;;;;;;;;4317969;33;20251;-79
2021/08/26 07:29:32;;;;;;;9.95;1.90;;;;;;;;;;4346795;33;20138;-79
2021/08/26 07:31:49;;;;;;;7.07;1.92;;;;;;;;;;4345848;33;20513;-79
2021/08/26 07:34:18;;;;;;;8.85;1.90;;;;;;;;;;4357997;32;20561;-80
2021/08/26 07:36:44;;;;;;;7.43;2.10;;;;;;;;;;4345330;33;20182;-79
2021/08/26 07:39:11;;;;;;;9.40;1.70;;;;;;;;;;4345848;33;20156;-79
2021/08/26 07:41:47;;;;;;;;;;;;;;;;;;;;;
2021/08/26 07:44:32;;;;;;;6.72;1.87;;;;;;;;;;4346549;33;20132;-79
2021/08/26 07:47:06;;;;;;;9.60;2.15;;;;;;;;;;4338332;33;20163;-79
2021/08/26 07:49:42;;;;;;;8.98;1.80;;;;;;;;;;4345581;33;20186;-79
2021/08/26 07:52:10;;;;;;;6.70;1.80;;;;;;;;;;4345382;33;20154;-81
2021/08/26 07:54:38;;;;;;;6.93;1.70;;;;;;;;;;4345256;33;20273;-79
2021/08/26 07:57:06;;;;;;;6.72;1.40;;;;;;;;;;4345688;33;20147;-78
2021/08/26 08:00:10;;;;;;;6.25;1.40;;;;;;;;;;4341890;33;20171;-78
2021/08/26 08:02:51;;;;;;;5.95;1.27;;;;;;;;;;4302517;33;20163;-80
2021/08/26 08:05:25;;;;;;;6.47;1.35;;;;;;;;;;4315605;33;20128;-79
2021/08/26 08:13:53;;;;;;;3.45;1.00;;;;;;;;;;4322615;33;20147;-79
2021/08/26 08:16:51;;;;;;;6.22;1.25;;;;;;;;;;4357297;32;20148;-78
2021/08/26 08:22:21;;;;;;;6.55;1.27;;;;;;;;;;4300137;33;20227;-82
2021/08/26 08:28:07;;;;;;;8.55;1.50;;;;;;;;;;4361195;32;20142;-81
2021/08/26 08:33:26;;;;;;;7.37;1.30;;;;;;;;;;4344665;33;20158;-81
2021/08/26 08:35:54;;;;;;;4.45;1.40;;;;;;;;;;4347308;33;20159;-80
2021/08/26 08:38:20;;;;;;;3.75;1.10;;;;;;;;;;4347303;33;20189;-79
2021/08/26 08:41:07;;;;;;;4.45;1.20;;;;;;;;;;4346976;33;20179;-79
2021/08/26 08:43:41;;;;;;;4.12;1.20;;;;;;;;;;4349769;33;20589;-78
2021/08/26 08:46:15;;;;;;;3.87;1.12;;;;;;;;;;4346768;33;20166;-80
2021/08/26 08:48:44;;;;;;;5.45;1.55;;;;;;;;;;4359208;33;20214;-79
2021/08/26 08:51:10;;;;;;;4.12;1.25;;;;;;;;;;4347058;33;20159;-80
2021/08/26 08:53:35;;;;;;;2.85;1.20;;;;;;;;;;4347024;33;20242;-79
2021/08/26 08:56:08;;;;;;;6.80;1.40;;;;;;;;;;4360884;32;20161;-80
2021/08/26 08:58:37;;;;;;;5.62;1.20;;;;;;;;;;4346600;33;20182;-80
2021/08/26 09:01:03;;;;;;;5.50;1.42;;;;;;;;;;4370848;32;20250;-79
2021/08/26 09:03:31;;;;;;;6.85;1.80;;;;;;;;;;4359225;33;20204;-81
2021/08/26 09:06:08;;;;;;;5.82;1.80;;;;;;;;;;4358746;32;20188;-80
2021/08/26 09:08:33;;;;;;;5.05;2.20;;;;;;;;;;4359058;33;20196;-79
2021/08/26 09:11:33;;;;;;;9.55;1.98;;;;;;;;;;4371552;32;20159;-80
2021/08/26 09:14:27;;;;;;;6.37;1.65;;;;;;;;;;4371263;32;20225;-80
2021/08/26 09:17:00;;;;;;;6.87;1.60;;;;;;;;;;4371519;32;20217;-82
2021/08/26 09:19:34;;;;;;;8.07;1.90;;;;;;;;;;4359251;32;20155;-79
2021/08/26 09:22:03;;;;;;;5.37;1.62;;;;;;;;;;4359917;32;20170;-80
2021/08/26 09:24:56;;;;;;;5.62;1.70;;;;;;;;;;4357199;33;20175;-82
2021/08/26 09:27:49;;;;;;;6.00;1.70;;;;;;;;;;4371668;32;20220;-80
2021/08/26 09:30:16;;;;;;;4.85;1.55;;;;;;;;;;4361010;33;20178;-79
2021/08/26 09:33:17;;;;;;;;;;;;;;;;;;;;;
2021/08/26 09:35:48;;;;;;;10.75;1.98;;;;;;;;;;4356476;33;20155;-79
2021/08/26 09:38:33;;;;;;;7.15;2.92;;;;;;;;;;4358728;33;20181;-79
2021/08/26 09:41:23;;;;;;;;;;;;;;;;;;;;;
2021/08/26 09:44:24;;;;;;;8.50;2.50;;;;;;;;;;4360219;33;20238;-80
2021/08/26 09:46:50;;;;;;;10.68;2.12;;;;;;;;;;4307138;33;20590;-79
2021/08/26 09:49:17;;;;;;;5.97;2.15;;;;;;;;;;4346279;33;20166;-80
2021/08/26 09:51:43;;;;;;;7.47;1.98;;;;;;;;;;4359463;33;20151;-81
2021/08/26 09:54:27;;;;;;;8.07;2.30;;;;;;;;;;4358891;33;20209;-81
2021/08/26 09:56:53;;;;;;;5.43;2.10;;;;;;;;;;4371255;32;20317;-81
2021/08/26 09:59:43;;;;;;;7.18;1.90;;;;;;;;;;4358457;33;20191;-81
2021/08/26 10:02:22;;;;;;;6.15;2.35;;;;;;;;;;4359736;33;20524;-81
2021/08/26 10:04:48;;;;;;;7.47;2.28;;;;;;;;;;4358659;33;20163;-77
2021/08/26 10:07:14;;;;;;;7.62;2.15;;;;;;;;;;4358356;33;20163;-79
2021/08/26 10:09:40;;;;;;;9.77;2.20;;;;;;;;;;4346794;33;20163;-80
2021/08/26 10:12:16;;;;;;;8.98;2.58;;;;;;;;;;4346849;33;20155;-81
2021/08/26 10:14:51;;;;;;;9.73;2.47;;;;;;;;;;4347145;33;20146;-80
2021/08/26 10:17:22;;;;;;;12.18;2.22;;;;;;;;;;4346483;33;20159;-79
2021/08/26 10:19:49;;;;;;;8.75;2.90;;;;;;;;;;4346789;33;20167;-79
2021/08/26 10:22:18;;;;;;;14.10;2.70;;;;;;;;;;4346263;33;20203;-81
2021/08/26 10:24:46;;;;;;;12.37;3.00;;;;;;;;;;4360298;33;20165;-79
2021/08/26 10:27:27;;;;;;;10.15;2.97;;;;;;;;;;4359238;33;20612;-80
2021/08/26 10:29:53;;;;;;;9.25;2.97;;;;;;;;;;4347047;33;20205;-80
2021/08/26 10:32:25;;;;;;;11.25;3.78;;;;;;;;;;4346043;33;20202;-79
2021/08/26 10:35:02;;;;;;;10.85;3.15;;;;;;;;;;4346020;33;20159;-79
2021/08/26 10:37:29;;;;;;;11.00;2.80;;;;;;;;;;4361432;32;20692;-79
2021/08/26 10:39:55;;;;;;;11.57;3.30;;;;;;;;;;4336782;33;20240;-79
2021/08/26 10:42:59;;;;;;;12.15;3.53;;;;;;;;;;4348496;33;20574;-80
2021/08/26 10:45:55;;;;;;;13.48;3.17;;;;;;;;;;4316421;33;20257;-80
2021/08/26 10:49:31;;;;;;;12.70;3.53;;;;;;;;;;4314104;33;20167;-78
2021/08/26 10:51:41;;;;;;;13.32;3.08;;;;;;;;;;4306093;33;20353;-81
2021/08/26 10:54:25;;;;;;;10.27;3.12;;;;;;;;;;4315535;33;20187;-80
2021/08/26 10:56:51;;;;;;;11.57;3.28;;;;;;;;;;4326708;33;20175;-78
2021/08/26 10:59:46;;;;;;;11.65;3.53;;;;;;;;;;4348327;33;20214;-81
2021/08/26 11:02:40;;;;;;;10.45;2.85;;;;;;;;;;4321462;33;20306;-79
2021/08/26 11:05:24;;;;;;;10.93;3.47;;;;;;;;;;4361244;32;20209;-80
2021/08/26 11:07:59;;;;;;;14.68;3.10;;;;;;;;;;4360567;32;20229;-78
2021/08/26 11:10:31;;;;;;;10.73;3.30;;;;;;;;;;4348112;33;20252;-79
2021/08/26 11:16:36;;;;;;;15.80;3.33;;;;;;;;;;4361908;32;20165;-80
2021/08/26 11:19:24;;;;;;;14.15;3.47;;;;;;;;;;4358918;33;20178;-79
2021/08/26 11:22:11;;;;;;;10.75;3.25;;;;;;;;;;4360341;33;20230;-80
2021/08/26 11:24:46;;;;;;;;;;;;;;;;;;;;;
2021/08/26 11:27:23;;;;;;;14.27;3.65;;;;;;;;;;4362026;32;20152;-80
2021/08/26 11:29:55;;;;;;;13.30;3.08;;;;;;;;;;4348014;33;20163;-79
2021/08/26 11:32:24;;;;;;;10.55;3.10;;;;;;;;;;4359404;32;20159;-77
2021/08/26 11:35:20;;;;;;;;;;;;;;;;;;;;;
2021/08/26 11:38:01;;;;;;;11.77;3.12;;;;;;;;;;4346889;33;20143;-79
2021/08/26 11:40:28;;;;;;;9.85;3.12;;;;;;;;;;4346002;33;20202;-80
2021/08/26 11:42:57;;;;;;;17.00;3.50;;;;;;;;;;4345736;33;20182;-79
2021/08/26 11:45:29;;;;;;;7.82;2.65;;;;;;;;;;4358250;32;20229;-79
2021/08/26 11:48:29;;;;;;;7.85;2.42;;;;;;;;;;4344723;33;20195;-79
2021/08/26 11:51:04;;;;;;;;;;;;;;;;;;;;;
2021/08/26 11:53:36;;;;;;;8.40;2.40;;;;;;;;;;4346851;33;20465;-79
2021/08/26 11:56:13;;;;;;;9.50;2.42;;;;;;;;;;4345028;33;20262;-79
2021/08/26 11:58:49;;;;;;;7.32;2.30;;;;;;;;;;4345499;33;20159;-80
2021/08/26 12:01:47;;;;;;;9.55;2.45;;;;;;;;;;4344838;33;20179;-79
2021/08/26 12:07:40;;;;;;;13.50;2.70;;;;;;;;;;4329648;33;20561;-78
2021/08/26 12:10:39;;;;;;;9.07;2.50;;;;;;;;;;4358670;33;20195;-80
2021/08/26 12:16:31;;;;;;;8.90;2.20;;;;;;;;;;4315058;33;20235;-79
2021/08/26 12:19:05;;;;;;;8.75;2.30;;;;;;;;;;4307638;33;20230;-79
2021/08/26 12:21:43;;;;;;;9.82;2.37;;;;;;;;;;4338799;33;20167;-79
2021/08/26 12:24:08;;;;;;;7.53;2.62;;;;;;;;;;4350084;32;20492;-77
2021/08/26 12:26:39;;;;;;;7.55;2.58;;;;;;;;;;4357479;32;20189;-79
2021/08/26 12:29:04;;;;;;;10.30;2.58;;;;;;;;;;4356951;32;20240;-80
2021/08/26 12:31:47;;;;;;;;;;;;;;;;;;;;;
2021/08/26 12:34:13;;;;;;;12.10;2.72;;;;;;;;;;4333089;33;20486;-79
2021/08/26 12:36:44;;;;;;;9.55;3.08;;;;;;;;;;4342734;33;20182;-79
2021/08/26 12:39:35;;;;;;;8.55;2.80;;;;;;;;;;4329960;33;20594;-79
2021/08/26 12:42:07;;;;;;;12.45;2.85;;;;;;;;;;4337823;33;20183;-79
2021/08/26 12:44:47;;;;;;;13.05;3.80;;;;;;;;;;4344319;33;20155;-79
2021/08/26 12:47:33;;;;;;;14.90;3.62;;;;;;;;;;4344959;33;20254;-81
2021/08/26 12:49:59;;;;;;;10.10;3.75;;;;;;;;;;4344286;33;20185;-78
2021/08/26 12:52:35;;;;;;;13.70;4.32;;;;;;;;;;4344130;33;20190;-80
2021/08/26 12:55:05;;;;;;;13.32;3.75;;;;;;;;;;4338244;32;20557;-80
2021/08/26 12:57:33;;;;;;;12.82;3.80;;;;;;;;;;4330304;33;20623;-79
2021/08/26 13:00:04;;;;;;;12.00;3.37;;;;;;;;;;4331551;33;20132;-80
2021/08/26 13:02:30;;;;;;;11.10;3.50;;;;;;;;;;4332336;33;20462;-78
2021/08/26 13:05:21;;;;;;;9.15;3.28;;;;;;;;;;4332150;33;20194;-78
2021/08/26 13:07:56;;;;;;;14.32;3.33;;;;;;;;;;4332355;33;20205;-79
2021/08/26 13:10:21;;;;;;;8.07;2.60;;;;;;;;;;4332260;33;20615;-79
2021/08/26 13:13:06;;;;;;;6.93;2.85;;;;;;;;;;4331587;33;20242;-80
2021/08/26 13:15:35;;;;;;;11.98;2.97;;;;;;;;;;4331667;33;20601;-80
2021/08/26 13:18:00;;;;;;;14.23;3.15;;;;;;;;;;4331751;33;20182;-77
2021/08/26 13:20:25;;;;;;;15.82;3.30;;;;;;;;;;4343848;33;20978;-79
2021/08/26 13:22:50;;;;;;;13.18;3.10;;;;;;;;;;4331941;33;20204;-79
2021/08/26 13:25:16;;;;;;;9.88;2.97;;;;;;;;;;4331458;33;20152;-78
2021/08/26 13:28:00;;;;;;;10.07;2.70;;;;;;;;;;4331562;33;20234;-80
2021/08/26 13:30:26;;;;;;;11.70;2.62;;;;;;;;;;4331698;33;20570;-79
2021/08/26 13:33:03;;;;;;;8.75;2.35;;;;;;;;;;4331280;33;20226;-79
2021/08/26 13:35:29;;;;;;;8.55;2.25;;;;;;;;;;4331966;33;20596;-79
2021/08/26 13:37:56;;;;;;;11.18;2.42;;;;;;;;;;4331706;33;20210;-78
2021/08/26 13:40:32;;;;;;;7.80;2.20;;;;;;;;;;4343647;33;20234;-79
2021/08/26 13:43:00;;;;;;;7.95;2.33;;;;;;;;;;4331705;33;20651;-79
2021/08/26 13:45:25;;;;;;;6.87;2.70;;;;;;;;;;4331442;33;20215;-80
2021/08/26 13:48:00;;;;;;;;;;;;;;;;;;;;;
2021/08/26 13:50:49;;;;;;;;;;;;;;;;;;;;;
2021/08/26 13:53:15;;;;;;;11.68;3.20;;;;;;;;;;4358681;33;20621;-79
2021/08/26 13:55:59;;;;;;;10.25;2.70;;;;;;;;;;4346690;33;20155;-79
2021/08/26 13:58:24;;;;;;;10.75;2.75;;;;;;;;;;4339931;33;20148;-78
2021/08/26 14:00:52;;;;;;;6.70;2.12;;;;;;;;;;4343640;33;20734;-80
2021/08/26 14:03:36;;;;;;;7.45;2.78;;;;;;;;;;4331849;33;20148;-80
2021/08/26 14:06:02;;;;;;;7.22;2.22;;;;;;;;;;4331803;33;20202;-79
2021/08/26 14:08:30;;;;;;;8.85;2.50;;;;;;;;;;4332716;33;20160;-79
2021/08/26 14:10:56;;;;;;;8.60;2.62;;;;;;;;;;4332914;33;20173;-79
2021/08/26 14:13:22;;;;;;;10.23;2.70;;;;;;;;;;4334043;33;20155;-80
2021/08/26 14:15:47;;;;;;;10.38;3.10;;;;;;;;;;4334328;33;20183;-80
2021/08/26 14:18:16;;;;;;;12.32;3.17;;;;;;;;;;4333689;33;20217;-81
2021/08/26 14:20:50;;;;;;;16.50;3.35;;;;;;;;;;4333782;33;20187;-78
2021/08/26 14:23:16;;;;;;;13.18;3.33;;;;;;;;;;4333894;33;20158;-79
2021/08/26 14:25:50;;;;;;;13.98;3.25;;;;;;;;;;4333906;33;20155;-81
2021/08/26 14:28:15;;;;;;;13.90;3.85;;;;;;;;;;4346198;33;20186;-80
2021/08/26 14:30:40;;;;;;;16.85;3.80;;;;;;;;;;4346674;33;20152;-79
2021/08/26 14:33:06;;;;;;;11.30;3.17;;;;;;;;;;4332874;33;20152;-79
2021/08/26 14:35:34;;;;;;;15.52;4.35;;;;;;;;;;4333381;33;20148;-80
2021/08/26 14:37:59;;;;;;;17.00;3.80;;;;;;;;;;4333927;33;20183;-79
2021/08/26 14:40:29;;;;;;;14.35;4.28;;;;;;;;;;4333714;33;20155;-79
2021/08/26 14:43:07;;;;;;;11.95;3.60;;;;;;;;;;4348398;33;20127;-79
2021/08/26 14:45:39;;;;;;;18.62;4.20;;;;;;;;;;4333498;33;20151;-79
2021/08/26 14:48:05;;;;;;;22.15;4.72;;;;;;;;;;4333675;33;20190;-78
2021/08/26 14:50:34;;;;;;;19.00;4.75;;;;;;;;;;4334122;33;20174;-80
2021/08/26 14:53:07;;;;;;;17.08;4.65;;;;;;;;;;4333502;33;20182;-80
2021/08/26 14:55:33;;;;;;;17.42;4.30;;;;;;;;;;4333351;33;20156;-79
2021/08/26 14:57:58;;;;;;;15.35;4.12;;;;;;;;;;4333514;33;20156;-80
2021/08/26 15:00:30;;;;;;;14.43;3.58;;;;;;;;;;4344940;33;20189;-78
2021/08/26 15:05:57;;;;;;;14.52;3.95;;;;;;;;;;4361404;32;20162;-80
2021/08/26 15:11:01;;;;;;;10.40;3.28;;;;;;;;;;4362731;32;20161;-79
2021/08/26 15:13:31;;;;;;;12.60;3.40;;;;;;;;;;4362152;33;20157;-80
2021/08/26 15:15:56;;;;;;;11.85;2.90;;;;;;;;;;4360551;32;20159;-80
2021/08/26 15:18:33;;;;;;;13.50;3.03;;;;;;;;;;4361585;32;20225;-78
2021/08/26 15:21:21;;;;;;;8.93;3.08;;;;;;;;;;4360829;33;20206;-81
2021/08/26 15:23:46;;;;;;;10.60;3.10;;;;;;;;;;4361431;32;20159;-80
2021/08/26 15:26:22;;;;;;;;;;;;;;;;;;;;;
2021/08/26 15:28:49;;;;;;;9.07;2.92;;;;;;;;;;4362087;32;20162;-81
2021/08/26 15:31:24;;;;;;;10.43;3.08;;;;;;;;;;4360151;32;20308;-80
2021/08/26 15:33:51;;;;;;;11.05;2.50;;;;;;;;;;4357662;32;20189;-80
2021/08/26 15:36:23;;;;;;;10.68;3.00;;;;;;;;;;4332982;33;20632;-81
2021/08/26 15:38:51;;;;;;;7.15;2.60;;;;;;;;;;4346891;33;20170;-82
2021/08/26 15:41:17;;;;;;;9.80;2.85;;;;;;;;;;4333089;33;20218;-80
2021/08/26 15:43:42;;;;;;;9.82;2.90;;;;;;;;;;4333813;33;20182;-80
2021/08/26 15:46:07;;;;;;;9.75;2.90;;;;;;;;;;4332576;33;20492;-80
2021/08/26 15:48:34;;;;;;;13.27;3.25;;;;;;;;;;4333044;33;20182;-80
2021/08/26 15:51:00;;;;;;;10.45;3.03;;;;;;;;;;4333005;33;20546;-80
2021/08/26 15:53:31;;;;;;;10.40;2.70;;;;;;;;;;4346153;33;20199;-80
2021/08/26 15:55:57;;;;;;;10.98;3.17;;;;;;;;;;4335276;33;20151;-80
2021/08/26 15:58:38;;;;;;;12.82;3.47;;;;;;;;;;4347310;33;20261;-80
2021/08/26 16:01:15;;;;;;;8.65;3.35;;;;;;;;;;4361119;32;20146;-80
2021/08/26 16:03:51;;;;;;;15.05;3.78;;;;;;;;;;4347678;33;20474;-80
2021/08/26 16:06:27;;;;;;;12.77;3.67;;;;;;;;;;4358608;33;20163;-79
2021/08/26 16:09:05;;;;;;;12.65;3.55;;;;;;;;;;4347354;33;20159;-81
2021/08/26 16:11:33;;;;;;;16.77;4.03;;;;;;;;;;4347594;33;20159;-80
2021/08/26 16:14:13;;;;;;;19.25;3.95;;;;;;;;;;4346943;33;20159;-79
2021/08/26 16:16:40;;;;;;;15.48;4.55;;;;;;;;;;4347771;33;20159;-81
2021/08/26 16:19:09;;;;;;;16.83;4.20;;;;;;;;;;4360519;32;20147;-81
2021/08/26 16:21:35;;;;;;;13.93;3.85;;;;;;;;;;4359367;32;20245;-81
2021/08/26 16:24:06;;;;;;;19.48;4.10;;;;;;;;;;4347086;33;20167;-80
2021/08/26 16:26:36;;;;;;;19.05;3.83;;;;;;;;;;4359190;33;20474;-80
2021/08/26 16:29:02;;;;;;;18.08;4.05;;;;;;;;;;4359611;32;20167;-80
2021/08/26 16:31:33;;;;;;;16.50;4.28;;;;;;;;;;4359020;33;20159;-80
2021/08/26 16:34:07;;;;;;;15.32;4.30;;;;;;;;;;4346623;33;20167;-80
2021/08/26 16:36:47;;;;;;;16.77;4.15;;;;;;;;;;4359713;33;20159;-81
2021/08/26 16:39:26;;;;;;;14.20;4.50;;;;;;;;;;4359364;32;20214;-82
2021/08/26 16:42:19;;;;;;;14.32;3.87;;;;;;;;;;4358802;33;20208;-81
2021/08/26 16:44:57;;;;;;;11.80;3.70;;;;;;;;;;4359268;33;20190;-81
2021/08/26 16:47:28;;;;;;;16.05;4.12;;;;;;;;;;4358599;33;20181;-79
2021/08/26 16:49:55;;;;;;;10.88;3.60;;;;;;;;;;4359358;32;20152;-80
2021/08/26 16:52:42;;;;;;;13.70;4.30;;;;;;;;;;4359274;32;20155;-80
2021/08/26 16:58:37;;;;;;;12.10;3.72;;;;;;;;;;4285488;33;20157;-79
2021/08/26 17:01:05;;;;;;;13.93;4.07;;;;;;;;;;4284811;33;20172;-80
2021/08/26 17:03:30;;;;;;;11.57;3.47;;;;;;;;;;4247266;33;20241;-79
2021/08/26 17:05:56;;;;;;;13.00;3.92;;;;;;;;;;4256450;33;20647;-81
2021/08/26 17:08:33;;;;;;;17.67;3.92;;;;;;;;;;4309577;33;20156;-80
2021/08/26 17:11:14;;;;;;;15.77;4.15;;;;;;;;;;4342674;32;20160;-81
2021/08/26 17:13:39;;;;;;;12.15;3.72;;;;;;;;;;4331007;33;20132;-80
2021/08/26 17:16:06;;;;;;;16.33;4.10;;;;;;;;;;4341470;33;20233;-80
2021/08/26 17:18:35;;;;;;;15.65;3.85;;;;;;;;;;4346877;33;20614;-79